Kortcamp, Illinois
Current Conditions -  °F | °C
As of 6:15 AM on Thursday 29 Jan 2015 (Local Time) from K3LF Reporting Station
Overcast Overcast  
Wind Chill: 30°   Ceiling: 2100
Heat Index: 41°   Visibility: 10mi
Dew Point: 34°   Wind: 26mph
Humidity: 77%   Direction: 290°WNW
Pressure: 29.88"   Gusts: 35mph
Location:  39.1415°N, 89.5029°W
Report Text: K3LF 291215Z AUTO 29023G30KT 10SM OVC021 05/01 A2988 RMK AO2 T00500013
Loading
Personal Weather Stations






























Interactive Weather Map New forecast layout! Learn more

10-Day Weather Forecast

Advertisements
Track Severe Weather on mobile